sensor_id;sensor_type;location;lat;lon;timestamp;P1;durP1;ratioP1;P2;durP2;ratioP2
8213;SDS011;4148;47.974;7.824;2023-03-23T00:02:13;7.23;;;2.27;;
8213;SDS011;4148;47.974;7.824;2023-03-23T00:04:41;3.70;;;2.70;;
8213;SDS011;4148;47.974;7.824;2023-03-23T00:07:08;3.43;;;2.20;;
8213;SDS011;4148;47.974;7.824;2023-03-23T00:09:37;2.63;;;1.97;;
8213;SDS011;4148;47.974;7.824;2023-03-23T00:12:08;2.73;;;2.00;;
8213;SDS011;4148;47.974;7.824;2023-03-23T00:14:37;4.80;;;2.40;;
8213;SDS011;4148;47.974;7.824;2023-03-23T00:17:08;2.53;;;1.97;;
8213;SDS011;4148;47.974;7.824;2023-03-23T00:19:36;3.63;;;2.00;;
8213;SDS011;4148;47.974;7.824;2023-03-23T00:22:10;2.70;;;2.17;;
8213;SDS011;4148;47.974;7.824;2023-03-23T00:24:38;3.37;;;2.57;;
8213;SDS011;4148;47.974;7.824;2023-03-23T00:27:05;3.40;;;2.10;;
8213;SDS011;4148;47.974;7.824;2023-03-23T00:29:37;3.30;;;1.90;;
8213;SDS011;4148;47.974;7.824;2023-03-23T00:32:04;4.23;;;2.00;;
8213;SDS011;4148;47.974;7.824;2023-03-23T00:34:31;7.73;;;1.80;;
8213;SDS011;4148;47.974;7.824;2023-03-23T00:36:59;2.00;;;1.70;;
8213;SDS011;4148;47.974;7.824;2023-03-23T00:39:27;2.70;;;1.67;;
8213;SDS011;4148;47.974;7.824;2023-03-23T00:41:54;7.73;;;2.03;;
8213;SDS011;4148;47.974;7.824;2023-03-23T00:44:27;4.30;;;2.40;;
8213;SDS011;4148;47.974;7.824;2023-03-23T00:46:55;2.27;;;1.60;;
8213;SDS011;4148;47.974;7.824;2023-03-23T00:49:23;2.50;;;1.70;;
8213;SDS011;4148;47.974;7.824;2023-03-23T00:51:51;2.30;;;1.80;;
8213;SDS011;4148;47.974;7.824;2023-03-23T00:54:19;3.77;;;2.07;;
8213;SDS011;4148;47.974;7.824;2023-03-23T00:56:46;2.90;;;1.77;;
8213;SDS011;4148;47.974;7.824;2023-03-23T00:59:13;3.37;;;1.80;;
8213;SDS011;4148;47.974;7.824;2023-03-23T01:01:41;2.57;;;1.87;;
8213;SDS011;4148;47.974;7.824;2023-03-23T01:04:08;2.80;;;1.77;;
8213;SDS011;4148;47.974;7.824;2023-03-23T01:06:38;2.90;;;1.93;;
8213;SDS011;4148;47.974;7.824;2023-03-23T01:09:06;1.80;;;1.47;;
8213;SDS011;4148;47.974;7.824;2023-03-23T01:11:34;2.80;;;1.83;;
8213;SDS011;4148;47.974;7.824;2023-03-23T01:14:02;4.63;;;1.80;;
8213;SDS011;4148;47.974;7.824;2023-03-23T01:16:29;2.60;;;1.90;;
8213;SDS011;4148;47.974;7.824;2023-03-23T01:18:57;2.57;;;1.80;;
8213;SDS011;4148;47.974;7.824;2023-03-23T01:21:24;3.10;;;1.70;;
8213;SDS011;4148;47.974;7.824;2023-03-23T01:23:51;2.30;;;1.80;;
8213;SDS011;4148;47.974;7.824;2023-03-23T01:26:18;2.90;;;1.83;;
8213;SDS011;4148;47.974;7.824;2023-03-23T01:28:46;2.50;;;1.70;;
8213;SDS011;4148;47.974;7.824;2023-03-23T01:31:14;3.03;;;1.90;;
8213;SDS011;4148;47.974;7.824;2023-03-23T01:33:43;5.90;;;1.70;;
8213;SDS011;4148;47.974;7.824;2023-03-23T01:36:12;3.40;;;2.03;;
8213;SDS011;4148;47.974;7.824;2023-03-23T01:38:41;3.03;;;1.67;;
8213;SDS011;4148;47.974;7.824;2023-03-23T01:41:08;2.80;;;1.83;;
8213;SDS011;4148;47.974;7.824;2023-03-23T01:43:36;2.40;;;1.70;;
8213;SDS011;4148;47.974;7.824;2023-03-23T01:46:19;2.50;;;1.90;;
8213;SDS011;4148;47.974;7.824;2023-03-23T01:48:47;3.97;;;2.23;;
8213;SDS011;4148;47.974;7.824;2023-03-23T01:51:17;3.33;;;2.03;;
8213;SDS011;4148;47.974;7.824;2023-03-23T01:53:46;2.33;;;1.63;;
8213;SDS011;4148;47.974;7.824;2023-03-23T01:56:18;3.37;;;1.80;;
8213;SDS011;4148;47.974;7.824;2023-03-23T01:58:50;3.17;;;1.60;;
8213;SDS011;4148;47.974;7.824;2023-03-23T02:01:17;2.90;;;1.70;;
8213;SDS011;4148;47.974;7.824;2023-03-23T02:03:46;2.30;;;1.90;;
8213;SDS011;4148;47.974;7.824;2023-03-23T02:06:14;2.10;;;1.70;;
8213;SDS011;4148;47.974;7.824;2023-03-23T02:08:42;2.40;;;1.80;;
8213;SDS011;4148;47.974;7.824;2023-03-23T02:11:12;3.60;;;1.60;;
8213;SDS011;4148;47.974;7.824;2023-03-23T02:13:40;2.47;;;1.77;;
8213;SDS011;4148;47.974;7.824;2023-03-23T02:16:08;2.37;;;1.43;;
8213;SDS011;4148;47.974;7.824;2023-03-23T02:18:42;2.90;;;1.60;;
8213;SDS011;4148;47.974;7.824;2023-03-23T02:21:36;2.23;;;1.67;;
8213;SDS011;4148;47.974;7.824;2023-03-23T02:24:37;2.43;;;1.63;;
8213;SDS011;4148;47.974;7.824;2023-03-23T02:27:40;2.17;;;1.57;;
8213;SDS011;4148;47.974;7.824;2023-03-23T02:30:30;2.30;;;1.80;;
8213;SDS011;4148;47.974;7.824;2023-03-23T02:36:05;2.10;;;1.47;;
8213;SDS011;4148;47.974;7.824;2023-03-23T02:38:40;3.67;;;1.63;;
8213;SDS011;4148;47.974;7.824;2023-03-23T02:41:15;2.53;;;1.80;;
8213;SDS011;4148;47.974;7.824;2023-03-23T02:43:46;1.80;;;1.50;;
8213;SDS011;4148;47.974;7.824;2023-03-23T02:46:14;1.80;;;1.50;;
8213;SDS011;4148;47.974;7.824;2023-03-23T02:48:43;2.43;;;1.90;;
8213;SDS011;4148;47.974;7.824;2023-03-23T02:51:13;3.20;;;1.70;;
8213;SDS011;4148;47.974;7.824;2023-03-23T02:53:42;2.57;;;1.87;;
8213;SDS011;4148;47.974;7.824;2023-03-23T02:56:10;2.73;;;1.93;;
8213;SDS011;4148;47.974;7.824;2023-03-23T02:58:39;2.80;;;1.73;;
8213;SDS011;4148;47.974;7.824;2023-03-23T03:01:44;1.90;;;1.50;;
8213;SDS011;4148;47.974;7.824;2023-03-23T03:04:16;1.70;;;1.40;;
8213;SDS011;4148;47.974;7.824;2023-03-23T03:06:49;4.77;;;1.70;;
8213;SDS011;4148;47.974;7.824;2023-03-23T03:09:30;1.97;;;1.50;;
8213;SDS011;4148;47.974;7.824;2023-03-23T03:12:04;2.43;;;1.80;;
8213;SDS011;4148;47.974;7.824;2023-03-23T03:14:37;2.57;;;1.50;;
8213;SDS011;4148;47.974;7.824;2023-03-23T03:17:09;2.27;;;1.70;;
8213;SDS011;4148;47.974;7.824;2023-03-23T03:19:42;2.40;;;1.80;;
8213;SDS011;4148;47.974;7.824;2023-03-23T03:22:11;2.23;;;1.70;;
8213;SDS011;4148;47.974;7.824;2023-03-23T03:24:39;5.90;;;1.80;;
8213;SDS011;4148;47.974;7.824;2023-03-23T03:27:10;3.10;;;2.10;;
8213;SDS011;4148;47.974;7.824;2023-03-23T03:29:40;2.33;;;1.73;;
8213;SDS011;4148;47.974;7.824;2023-03-23T03:32:08;2.23;;;1.93;;
8213;SDS011;4148;47.974;7.824;2023-03-23T03:34:38;2.80;;;1.77;;
8213;SDS011;4148;47.974;7.824;2023-03-23T03:37:06;2.40;;;1.70;;
8213;SDS011;4148;47.974;7.824;2023-03-23T03:39:34;2.33;;;1.87;;
8213;SDS011;4148;47.974;7.824;2023-03-23T03:42:01;2.07;;;1.67;;
8213;SDS011;4148;47.974;7.824;2023-03-23T03:44:28;1.97;;;1.43;;
8213;SDS011;4148;47.974;7.824;2023-03-23T03:46:55;1.90;;;1.70;;
8213;SDS011;4148;47.974;7.824;2023-03-23T03:49:22;6.33;;;2.37;;
8213;SDS011;4148;47.974;7.824;2023-03-23T03:51:48;2.53;;;1.73;;
8213;SDS011;4148;47.974;7.824;2023-03-23T03:54:16;2.90;;;1.60;;
8213;SDS011;4148;47.974;7.824;2023-03-23T03:56:43;2.40;;;1.80;;
8213;SDS011;4148;47.974;7.824;2023-03-23T03:59:10;2.93;;;1.87;;
8213;SDS011;4148;47.974;7.824;2023-03-23T04:01:37;2.50;;;2.00;;
8213;SDS011;4148;47.974;7.824;2023-03-23T04:04:05;2.57;;;1.70;;
8213;SDS011;4148;47.974;7.824;2023-03-23T04:06:32;2.40;;;1.73;;
8213;SDS011;4148;47.974;7.824;2023-03-23T04:09:01;2.23;;;1.83;;
8213;SDS011;4148;47.974;7.824;2023-03-23T04:11:32;3.83;;;1.73;;
8213;SDS011;4148;47.974;7.824;2023-03-23T04:13:59;6.00;;;2.10;;
8213;SDS011;4148;47.974;7.824;2023-03-23T04:16:26;2.70;;;1.87;;
8213;SDS011;4148;47.974;7.824;2023-03-23T04:18:54;2.03;;;1.63;;
8213;SDS011;4148;47.974;7.824;2023-03-23T04:21:22;2.97;;;1.70;;
8213;SDS011;4148;47.974;7.824;2023-03-23T04:23:53;1.80;;;1.60;;
8213;SDS011;4148;47.974;7.824;2023-03-23T04:26:21;2.60;;;2.07;;
8213;SDS011;4148;47.974;7.824;2023-03-23T04:28:49;2.00;;;1.60;;
8213;SDS011;4148;47.974;7.824;2023-03-23T04:31:17;3.40;;;2.10;;
8213;SDS011;4148;47.974;7.824;2023-03-23T04:33:44;2.57;;;1.90;;
8213;SDS011;4148;47.974;7.824;2023-03-23T04:36:11;3.40;;;2.00;;
8213;SDS011;4148;47.974;7.824;2023-03-23T04:38:41;4.73;;;2.17;;
8213;SDS011;4148;47.974;7.824;2023-03-23T04:41:08;3.00;;;2.07;;
8213;SDS011;4148;47.974;7.824;2023-03-23T04:43:35;2.60;;;2.20;;
8213;SDS011;4148;47.974;7.824;2023-03-23T04:46:08;2.67;;;1.93;;
8213;SDS011;4148;47.974;7.824;2023-03-23T04:48:34;2.40;;;2.20;;
8213;SDS011;4148;47.974;7.824;2023-03-23T04:51:04;3.03;;;2.00;;
8213;SDS011;4148;47.974;7.824;2023-03-23T04:53:31;4.53;;;1.80;;
8213;SDS011;4148;47.974;7.824;2023-03-23T04:55:59;3.80;;;2.20;;
8213;SDS011;4148;47.974;7.824;2023-03-23T04:58:27;3.47;;;1.93;;
8213;SDS011;4148;47.974;7.824;2023-03-23T05:00:54;2.43;;;1.80;;
8213;SDS011;4148;47.974;7.824;2023-03-23T05:03:23;3.60;;;2.10;;
8213;SDS011;4148;47.974;7.824;2023-03-23T05:05:50;3.30;;;1.80;;
8213;SDS011;4148;47.974;7.824;2023-03-23T05:08:18;3.10;;;2.07;;
8213;SDS011;4148;47.974;7.824;2023-03-23T05:10:51;3.00;;;2.03;;
8213;SDS011;4148;47.974;7.824;2023-03-23T05:13:19;3.80;;;2.30;;
8213;SDS011;4148;47.974;7.824;2023-03-23T05:15:46;2.70;;;2.23;;
8213;SDS011;4148;47.974;7.824;2023-03-23T05:18:12;2.77;;;2.40;;
8213;SDS011;4148;47.974;7.824;2023-03-23T05:20:41;4.60;;;2.20;;
8213;SDS011;4148;47.974;7.824;2023-03-23T05:23:07;3.00;;;2.27;;
8213;SDS011;4148;47.974;7.824;2023-03-23T05:25:34;2.57;;;2.00;;
8213;SDS011;4148;47.974;7.824;2023-03-23T05:28:05;3.13;;;2.20;;
8213;SDS011;4148;47.974;7.824;2023-03-23T05:30:32;2.30;;;2.00;;
8213;SDS011;4148;47.974;7.824;2023-03-23T05:33:00;2.47;;;2.27;;
8213;SDS011;4148;47.974;7.824;2023-03-23T05:35:27;3.50;;;2.40;;
8213;SDS011;4148;47.974;7.824;2023-03-23T05:37:55;2.70;;;2.30;;
8213;SDS011;4148;47.974;7.824;2023-03-23T05:40:23;2.90;;;2.50;;
8213;SDS011;4148;47.974;7.824;2023-03-23T05:42:51;3.40;;;2.20;;
8213;SDS011;4148;47.974;7.824;2023-03-23T05:45:20;4.17;;;2.23;;
8213;SDS011;4148;47.974;7.824;2023-03-23T05:47:48;2.80;;;2.23;;
8213;SDS011;4148;47.974;7.824;2023-03-23T05:50:15;3.83;;;2.47;;
8213;SDS011;4148;47.974;7.824;2023-03-23T05:52:42;2.57;;;2.37;;
8213;SDS011;4148;47.974;7.824;2023-03-23T05:55:11;3.57;;;2.27;;
8213;SDS011;4148;47.974;7.824;2023-03-23T05:57:38;3.93;;;2.40;;
8213;SDS011;4148;47.974;7.824;2023-03-23T06:00:05;3.43;;;2.37;;
8213;SDS011;4148;47.974;7.824;2023-03-23T06:02:44;3.03;;;2.20;;
8213;SDS011;4148;47.974;7.824;2023-03-23T06:05:10;3.20;;;2.10;;
8213;SDS011;4148;47.974;7.824;2023-03-23T06:07:38;2.67;;;2.30;;
8213;SDS011;4148;47.974;7.824;2023-03-23T06:10:06;5.00;;;2.50;;
8213;SDS011;4148;47.974;7.824;2023-03-23T06:12:35;3.23;;;2.63;;
8213;SDS011;4148;47.974;7.824;2023-03-23T06:15:02;2.60;;;2.27;;
8213;SDS011;4148;47.974;7.824;2023-03-23T06:17:31;3.10;;;2.70;;
8213;SDS011;4148;47.974;7.824;2023-03-23T06:19:58;4.30;;;2.70;;
8213;SDS011;4148;47.974;7.824;2023-03-23T06:22:25;3.20;;;2.40;;
8213;SDS011;4148;47.974;7.824;2023-03-23T06:24:52;3.10;;;2.30;;
8213;SDS011;4148;47.974;7.824;2023-03-23T06:27:22;2.93;;;2.50;;
8213;SDS011;4148;47.974;7.824;2023-03-23T06:29:50;5.83;;;2.90;;
8213;SDS011;4148;47.974;7.824;2023-03-23T06:32:16;3.47;;;2.40;;
8213;SDS011;4148;47.974;7.824;2023-03-23T06:34:43;2.40;;;2.20;;
8213;SDS011;4148;47.974;7.824;2023-03-23T06:37:11;3.40;;;2.60;;
8213;SDS011;4148;47.974;7.824;2023-03-23T06:39:38;5.20;;;2.43;;
8213;SDS011;4148;47.974;7.824;2023-03-23T06:42:08;3.57;;;2.70;;
8213;SDS011;4148;47.974;7.824;2023-03-23T06:44:36;3.27;;;2.47;;
8213;SDS011;4148;47.974;7.824;2023-03-23T06:47:04;4.10;;;2.60;;
8213;SDS011;4148;47.974;7.824;2023-03-23T06:49:32;2.30;;;2.10;;
8213;SDS011;4148;47.974;7.824;2023-03-23T06:51:59;2.93;;;2.40;;
8213;SDS011;4148;47.974;7.824;2023-03-23T06:54:26;3.47;;;2.77;;
8213;SDS011;4148;47.974;7.824;2023-03-23T06:56:53;3.07;;;2.20;;
8213;SDS011;4148;47.974;7.824;2023-03-23T06:59:20;3.00;;;2.70;;
8213;SDS011;4148;47.974;7.824;2023-03-23T07:01:47;3.53;;;2.33;;
8213;SDS011;4148;47.974;7.824;2023-03-23T07:04:16;3.50;;;2.57;;
8213;SDS011;4148;47.974;7.824;2023-03-23T07:06:43;3.97;;;2.47;;
8213;SDS011;4148;47.974;7.824;2023-03-23T07:09:10;4.50;;;2.57;;
8213;SDS011;4148;47.974;7.824;2023-03-23T07:11:37;7.80;;;3.63;;
8213;SDS011;4148;47.974;7.824;2023-03-23T07:14:04;3.07;;;2.30;;
8213;SDS011;4148;47.974;7.824;2023-03-23T07:16:30;7.30;;;2.63;;
8213;SDS011;4148;47.974;7.824;2023-03-23T07:18:57;4.23;;;2.37;;
8213;SDS011;4148;47.974;7.824;2023-03-23T07:21:25;2.90;;;2.30;;
8213;SDS011;4148;47.974;7.824;2023-03-23T07:23:52;3.03;;;2.17;;
8213;SDS011;4148;47.974;7.824;2023-03-23T07:26:19;2.83;;;2.27;;
8213;SDS011;4148;47.974;7.824;2023-03-23T07:28:46;3.13;;;2.80;;
8213;SDS011;4148;47.974;7.824;2023-03-23T07:31:13;5.80;;;2.80;;
8213;SDS011;4148;47.974;7.824;2023-03-23T07:33:40;3.30;;;2.20;;
8213;SDS011;4148;47.974;7.824;2023-03-23T07:36:07;4.73;;;2.50;;
8213;SDS011;4148;47.974;7.824;2023-03-23T07:38:36;2.47;;;2.13;;
8213;SDS011;4148;47.974;7.824;2023-03-23T07:41:03;2.63;;;2.10;;
8213;SDS011;4148;47.974;7.824;2023-03-23T07:43:31;4.93;;;2.90;;
8213;SDS011;4148;47.974;7.824;2023-03-23T07:45:58;3.90;;;2.30;;
8213;SDS011;4148;47.974;7.824;2023-03-23T07:48:25;3.30;;;2.57;;
8213;SDS011;4148;47.974;7.824;2023-03-23T07:50:51;5.20;;;2.50;;
8213;SDS011;4148;47.974;7.824;2023-03-23T07:53:18;4.67;;;2.80;;
8213;SDS011;4148;47.974;7.824;2023-03-23T07:55:47;3.33;;;2.50;;
8213;SDS011;4148;47.974;7.824;2023-03-23T07:58:14;3.57;;;2.70;;
8213;SDS011;4148;47.974;7.824;2023-03-23T08:00:44;3.60;;;3.03;;
8213;SDS011;4148;47.974;7.824;2023-03-23T08:03:11;6.43;;;2.70;;
8213;SDS011;4148;47.974;7.824;2023-03-23T08:05:39;4.37;;;2.47;;
8213;SDS011;4148;47.974;7.824;2023-03-23T08:08:07;3.17;;;2.27;;
8213;SDS011;4148;47.974;7.824;2023-03-23T08:10:34;3.67;;;2.97;;
8213;SDS011;4148;47.974;7.824;2023-03-23T08:13:03;3.70;;;2.83;;
8213;SDS011;4148;47.974;7.824;2023-03-23T08:15:31;5.20;;;2.63;;
8213;SDS011;4148;47.974;7.824;2023-03-23T08:17:58;5.63;;;2.80;;
8213;SDS011;4148;47.974;7.824;2023-03-23T08:20:26;4.17;;;2.53;;
8213;SDS011;4148;47.974;7.824;2023-03-23T08:22:53;3.73;;;2.40;;
8213;SDS011;4148;47.974;7.824;2023-03-23T08:25:22;3.37;;;2.73;;
8213;SDS011;4148;47.974;7.824;2023-03-23T08:27:51;4.10;;;3.20;;
8213;SDS011;4148;47.974;7.824;2023-03-23T08:30:20;5.13;;;4.50;;
8213;SDS011;4148;47.974;7.824;2023-03-23T08:32:48;4.97;;;3.80;;
8213;SDS011;4148;47.974;7.824;2023-03-23T08:35:16;4.70;;;3.80;;
8213;SDS011;4148;47.974;7.824;2023-03-23T08:37:44;4.20;;;3.70;;
8213;SDS011;4148;47.974;7.824;2023-03-23T08:40:16;5.07;;;3.60;;
8213;SDS011;4148;47.974;7.824;2023-03-23T08:42:45;3.87;;;2.80;;
8213;SDS011;4148;47.974;7.824;2023-03-23T08:45:14;3.37;;;2.50;;
8213;SDS011;4148;47.974;7.824;2023-03-23T08:47:44;4.30;;;2.97;;
8213;SDS011;4148;47.974;7.824;2023-03-23T08:50:13;4.90;;;2.77;;
8213;SDS011;4148;47.974;7.824;2023-03-23T08:52:41;3.47;;;2.53;;
8213;SDS011;4148;47.974;7.824;2023-03-23T08:55:08;4.20;;;3.00;;
8213;SDS011;4148;47.974;7.824;2023-03-23T08:57:36;4.00;;;3.00;;
8213;SDS011;4148;47.974;7.824;2023-03-23T09:00:04;3.63;;;3.13;;
8213;SDS011;4148;47.974;7.824;2023-03-23T09:02:40;4.03;;;2.60;;
8213;SDS011;4148;47.974;7.824;2023-03-23T09:05:09;4.10;;;2.80;;
8213;SDS011;4148;47.974;7.824;2023-03-23T09:07:37;3.30;;;2.50;;
8213;SDS011;4148;47.974;7.824;2023-03-23T09:10:04;3.60;;;2.80;;
8213;SDS011;4148;47.974;7.824;2023-03-23T09:12:32;4.90;;;2.73;;
8213;SDS011;4148;47.974;7.824;2023-03-23T09:15:00;3.40;;;3.10;;
8213;SDS011;4148;47.974;7.824;2023-03-23T09:17:30;6.77;;;3.47;;
8213;SDS011;4148;47.974;7.824;2023-03-23T09:19:57;4.20;;;3.20;;
8213;SDS011;4148;47.974;7.824;2023-03-23T09:22:25;4.60;;;2.60;;
8213;SDS011;4148;47.974;7.824;2023-03-23T09:24:52;4.40;;;3.07;;
8213;SDS011;4148;47.974;7.824;2023-03-23T09:27:19;5.97;;;4.07;;
8213;SDS011;4148;47.974;7.824;2023-03-23T09:29:46;2.83;;;2.30;;
8213;SDS011;4148;47.974;7.824;2023-03-23T09:32:13;4.30;;;2.40;;
8213;SDS011;4148;47.974;7.824;2023-03-23T09:34:40;6.53;;;2.40;;
8213;SDS011;4148;47.974;7.824;2023-03-23T09:37:07;2.90;;;2.10;;
8213;SDS011;4148;47.974;7.824;2023-03-23T09:39:35;3.07;;;2.53;;
8213;SDS011;4148;47.974;7.824;2023-03-23T09:42:08;2.50;;;1.90;;
8213;SDS011;4148;47.974;7.824;2023-03-23T09:44:46;2.67;;;2.20;;
8213;SDS011;4148;47.974;7.824;2023-03-23T09:47:25;3.83;;;2.40;;
8213;SDS011;4148;47.974;7.824;2023-03-23T09:49:59;2.53;;;1.90;;
8213;SDS011;4148;47.974;7.824;2023-03-23T09:52:36;2.60;;;2.07;;
8213;SDS011;4148;47.974;7.824;2023-03-23T09:55:09;3.70;;;1.80;;
8213;SDS011;4148;47.974;7.824;2023-03-23T09:57:43;3.10;;;2.40;;
8213;SDS011;4148;47.974;7.824;2023-03-23T10:00:15;2.87;;;2.07;;
8213;SDS011;4148;47.974;7.824;2023-03-23T10:02:48;4.20;;;2.53;;
8213;SDS011;4148;47.974;7.824;2023-03-23T10:05:25;2.30;;;2.07;;
8213;SDS011;4148;47.974;7.824;2023-03-23T10:07:55;3.13;;;2.20;;
8213;SDS011;4148;47.974;7.824;2023-03-23T10:10:25;4.17;;;2.00;;
8213;SDS011;4148;47.974;7.824;2023-03-23T10:12:58;4.10;;;2.40;;
8213;SDS011;4148;47.974;7.824;2023-03-23T10:15:30;3.30;;;2.13;;
8213;SDS011;4148;47.974;7.824;2023-03-23T10:18:00;5.10;;;2.30;;
8213;SDS011;4148;47.974;7.824;2023-03-23T10:20:34;3.70;;;2.43;;
8213;SDS011;4148;47.974;7.824;2023-03-23T10:23:10;3.73;;;3.10;;
8213;SDS011;4148;47.974;7.824;2023-03-23T10:25:51;4.53;;;2.63;;
8213;SDS011;4148;47.974;7.824;2023-03-23T10:28:32;3.53;;;2.80;;
8213;SDS011;4148;47.974;7.824;2023-03-23T10:31:01;3.80;;;2.43;;
8213;SDS011;4148;47.974;7.824;2023-03-23T10:33:33;3.80;;;2.90;;
8213;SDS011;4148;47.974;7.824;2023-03-23T10:36:05;3.90;;;2.60;;
8213;SDS011;4148;47.974;7.824;2023-03-23T10:38:36;2.47;;;2.00;;
8213;SDS011;4148;47.974;7.824;2023-03-23T10:41:09;2.10;;;1.70;;
8213;SDS011;4148;47.974;7.824;2023-03-23T10:43:37;3.60;;;2.00;;
8213;SDS011;4148;47.974;7.824;2023-03-23T10:46:10;2.90;;;2.03;;
8213;SDS011;4148;47.974;7.824;2023-03-23T10:48:47;3.00;;;2.13;;
8213;SDS011;4148;47.974;7.824;2023-03-23T10:51:20;2.50;;;2.20;;
8213;SDS011;4148;47.974;7.824;2023-03-23T10:53:56;4.13;;;2.43;;
8213;SDS011;4148;47.974;7.824;2023-03-23T10:56:26;3.40;;;1.97;;
8213;SDS011;4148;47.974;7.824;2023-03-23T10:58:54;2.10;;;1.70;;
8213;SDS011;4148;47.974;7.824;2023-03-23T11:01:28;5.13;;;1.97;;
8213;SDS011;4148;47.974;7.824;2023-03-23T11:03:56;2.33;;;1.60;;
8213;SDS011;4148;47.974;7.824;2023-03-23T11:06:25;2.73;;;2.07;;
8213;SDS011;4148;47.974;7.824;2023-03-23T11:08:56;2.20;;;1.80;;
8213;SDS011;4148;47.974;7.824;2023-03-23T11:11:26;3.53;;;2.03;;
8213;SDS011;4148;47.974;7.824;2023-03-23T11:13:59;2.97;;;1.70;;
8213;SDS011;4148;47.974;7.824;2023-03-23T11:16:27;3.63;;;2.10;;
8213;SDS011;4148;47.974;7.824;2023-03-23T11:18:56;2.10;;;1.60;;
8213;SDS011;4148;47.974;7.824;2023-03-23T11:21:24;4.00;;;2.50;;
8213;SDS011;4148;47.974;7.824;2023-03-23T11:23:53;9.40;;;1.70;;
8213;SDS011;4148;47.974;7.824;2023-03-23T11:26:24;2.73;;;1.83;;
8213;SDS011;4148;47.974;7.824;2023-03-23T11:28:56;3.33;;;2.00;;
8213;SDS011;4148;47.974;7.824;2023-03-23T11:31:27;2.30;;;2.00;;
8213;SDS011;4148;47.974;7.824;2023-03-23T11:33:57;5.57;;;2.23;;
8213;SDS011;4148;47.974;7.824;2023-03-23T11:36:30;3.27;;;2.20;;
8213;SDS011;4148;47.974;7.824;2023-03-23T11:38:59;2.67;;;2.07;;
8213;SDS011;4148;47.974;7.824;2023-03-23T11:41:33;3.70;;;2.03;;
8213;SDS011;4148;47.974;7.824;2023-03-23T11:44:08;2.77;;;2.33;;
8213;SDS011;4148;47.974;7.824;2023-03-23T11:46:39;2.87;;;2.00;;
8213;SDS011;4148;47.974;7.824;2023-03-23T11:49:18;4.97;;;2.43;;
8213;SDS011;4148;47.974;7.824;2023-03-23T11:51:54;3.20;;;2.30;;
8213;SDS011;4148;47.974;7.824;2023-03-23T11:54:26;2.50;;;2.17;;
8213;SDS011;4148;47.974;7.824;2023-03-23T11:56:58;3.23;;;2.33;;
8213;SDS011;4148;47.974;7.824;2023-03-23T11:59:29;2.60;;;2.10;;
8213;SDS011;4148;47.974;7.824;2023-03-23T12:02:00;4.83;;;2.33;;
8213;SDS011;4148;47.974;7.824;2023-03-23T12:04:35;3.10;;;2.50;;
8213;SDS011;4148;47.974;7.824;2023-03-23T12:07:16;2.60;;;1.93;;
8213;SDS011;4148;47.974;7.824;2023-03-23T12:09:58;5.73;;;2.23;;
8213;SDS011;4148;47.974;7.824;2023-03-23T12:12:35;3.60;;;2.20;;
8213;SDS011;4148;47.974;7.824;2023-03-23T12:15:10;2.50;;;2.30;;
8213;SDS011;4148;47.974;7.824;2023-03-23T12:17:47;2.40;;;2.10;;
8213;SDS011;4148;47.974;7.824;2023-03-23T12:20:23;4.17;;;2.33;;
8213;SDS011;4148;47.974;7.824;2023-03-23T12:22:59;4.73;;;2.10;;
8213;SDS011;4148;47.974;7.824;2023-03-23T12:25:43;2.90;;;2.10;;
8213;SDS011;4148;47.974;7.824;2023-03-23T12:28:25;3.03;;;2.13;;
8213;SDS011;4148;47.974;7.824;2023-03-23T12:31:01;2.77;;;2.07;;
8213;SDS011;4148;47.974;7.824;2023-03-23T12:33:37;2.77;;;2.10;;
8213;SDS011;4148;47.974;7.824;2023-03-23T12:36:15;3.87;;;2.30;;
8213;SDS011;4148;47.974;7.824;2023-03-23T12:38:56;2.97;;;2.03;;
8213;SDS011;4148;47.974;7.824;2023-03-23T12:41:57;3.67;;;2.57;;
8213;SDS011;4148;47.974;7.824;2023-03-23T12:44:31;3.07;;;2.17;;
8213;SDS011;4148;47.974;7.824;2023-03-23T12:47:14;2.90;;;2.20;;
8213;SDS011;4148;47.974;7.824;2023-03-23T12:50:05;2.83;;;1.67;;
8213;SDS011;4148;47.974;7.824;2023-03-23T12:52:39;3.23;;;2.30;;
8213;SDS011;4148;47.974;7.824;2023-03-23T12:55:14;3.57;;;2.13;;
8213;SDS011;4148;47.974;7.824;2023-03-23T12:57:48;4.60;;;2.60;;
8213;SDS011;4148;47.974;7.824;2023-03-23T13:00:22;4.10;;;2.30;;
8213;SDS011;4148;47.974;7.824;2023-03-23T13:02:52;2.67;;;2.10;;
8213;SDS011;4148;47.974;7.824;2023-03-23T13:05:29;2.73;;;2.07;;
8213;SDS011;4148;47.974;7.824;2023-03-23T13:08:04;3.13;;;2.17;;
8213;SDS011;4148;47.974;7.824;2023-03-23T13:10:44;2.90;;;1.73;;
8213;SDS011;4148;47.974;7.824;2023-03-23T13:13:14;2.67;;;2.30;;
8213;SDS011;4148;47.974;7.824;2023-03-23T13:15:48;2.60;;;1.90;;
8213;SDS011;4148;47.974;7.824;2023-03-23T13:18:25;3.10;;;2.10;;
8213;SDS011;4148;47.974;7.824;2023-03-23T13:21:02;2.47;;;2.00;;
8213;SDS011;4148;47.974;7.824;2023-03-23T13:23:35;3.17;;;2.17;;
8213;SDS011;4148;47.974;7.824;2023-03-23T13:26:05;3.70;;;2.00;;
8213;SDS011;4148;47.974;7.824;2023-03-23T13:31:24;2.70;;;1.93;;
8213;SDS011;4148;47.974;7.824;2023-03-23T13:33:57;3.30;;;1.90;;
8213;SDS011;4148;47.974;7.824;2023-03-23T13:36:30;4.47;;;1.93;;
8213;SDS011;4148;47.974;7.824;2023-03-23T13:39:02;3.60;;;2.23;;
8213;SDS011;4148;47.974;7.824;2023-03-23T13:41:32;2.57;;;2.27;;
8213;SDS011;4148;47.974;7.824;2023-03-23T13:44:15;2.63;;;2.30;;
8213;SDS011;4148;47.974;7.824;2023-03-23T13:46:54;4.80;;;2.30;;
8213;SDS011;4148;47.974;7.824;2023-03-23T13:49:23;3.20;;;2.33;;
8213;SDS011;4148;47.974;7.824;2023-03-23T13:51:59;2.27;;;2.00;;
8213;SDS011;4148;47.974;7.824;2023-03-23T13:54:42;3.30;;;1.90;;
8213;SDS011;4148;47.974;7.824;2023-03-23T13:57:23;3.80;;;2.10;;
8213;SDS011;4148;47.974;7.824;2023-03-23T13:59:57;3.77;;;2.43;;
8213;SDS011;4148;47.974;7.824;2023-03-23T14:02:31;3.90;;;2.33;;
8213;SDS011;4148;47.974;7.824;2023-03-23T14:05:09;3.47;;;2.33;;
8213;SDS011;4148;47.974;7.824;2023-03-23T14:07:55;2.60;;;1.83;;
8213;SDS011;4148;47.974;7.824;2023-03-23T14:10:25;3.23;;;2.27;;
8213;SDS011;4148;47.974;7.824;2023-03-23T14:12:58;3.93;;;2.70;;
8213;SDS011;4148;47.974;7.824;2023-03-23T14:15:28;2.77;;;2.00;;
8213;SDS011;4148;47.974;7.824;2023-03-23T14:17:57;3.83;;;2.13;;
8213;SDS011;4148;47.974;7.824;2023-03-23T14:20:29;3.50;;;2.00;;
8213;SDS011;4148;47.974;7.824;2023-03-23T14:22:58;2.60;;;2.03;;
8213;SDS011;4148;47.974;7.824;2023-03-23T14:25:26;3.00;;;1.83;;
8213;SDS011;4148;47.974;7.824;2023-03-23T14:27:55;2.30;;;1.80;;
8213;SDS011;4148;47.974;7.824;2023-03-23T14:30:23;2.70;;;2.10;;
8213;SDS011;4148;47.974;7.824;2023-03-23T14:32:51;4.70;;;2.20;;
8213;SDS011;4148;47.974;7.824;2023-03-23T14:35:21;3.00;;;2.23;;
8213;SDS011;4148;47.974;7.824;2023-03-23T14:37:51;3.33;;;1.90;;
8213;SDS011;4148;47.974;7.824;2023-03-23T14:40:18;2.30;;;1.83;;
8213;SDS011;4148;47.974;7.824;2023-03-23T14:42:46;6.50;;;5.60;;
8213;SDS011;4148;47.974;7.824;2023-03-23T14:45:14;5.50;;;3.53;;
8213;SDS011;4148;47.974;7.824;2023-03-23T14:47:43;4.80;;;4.30;;
8213;SDS011;4148;47.974;7.824;2023-03-23T14:50:23;3.60;;;2.50;;
8213;SDS011;4148;47.974;7.824;2023-03-23T14:52:55;3.27;;;2.50;;
8213;SDS011;4148;47.974;7.824;2023-03-23T14:55:24;3.20;;;2.57;;
8213;SDS011;4148;47.974;7.824;2023-03-23T14:57:53;4.00;;;2.70;;
8213;SDS011;4148;47.974;7.824;2023-03-23T15:00:22;3.73;;;2.90;;
8213;SDS011;4148;47.974;7.824;2023-03-23T15:02:55;4.00;;;3.23;;
8213;SDS011;4148;47.974;7.824;2023-03-23T15:05:27;11.60;;;3.90;;
8213;SDS011;4148;47.974;7.824;2023-03-23T15:07:59;3.57;;;3.17;;
8213;SDS011;4148;47.974;7.824;2023-03-23T15:10:29;4.47;;;2.73;;
8213;SDS011;4148;47.974;7.824;2023-03-23T15:12:56;2.87;;;2.57;;
8213;SDS011;4148;47.974;7.824;2023-03-23T15:15:25;3.50;;;3.20;;
8213;SDS011;4148;47.974;7.824;2023-03-23T15:17:53;4.20;;;3.07;;
8213;SDS011;4148;47.974;7.824;2023-03-23T15:20:21;4.67;;;2.40;;
8213;SDS011;4148;47.974;7.824;2023-03-23T15:22:51;3.13;;;2.80;;
8213;SDS011;4148;47.974;7.824;2023-03-23T15:25:19;5.27;;;2.67;;
8213;SDS011;4148;47.974;7.824;2023-03-23T15:27:51;5.17;;;4.67;;
8213;SDS011;4148;47.974;7.824;2023-03-23T15:30:27;8.27;;;6.93;;
8213;SDS011;4148;47.974;7.824;2023-03-23T15:33:02;7.20;;;6.50;;
8213;SDS011;4148;47.974;7.824;2023-03-23T15:35:33;5.10;;;4.43;;
8213;SDS011;4148;47.974;7.824;2023-03-23T15:38:03;3.53;;;2.40;;
8213;SDS011;4148;47.974;7.824;2023-03-23T15:40:33;3.57;;;3.27;;
8213;SDS011;4148;47.974;7.824;2023-03-23T15:43:05;3.53;;;3.17;;